sensor_id;sensor_type;location;lat;lon;timestamp;P1;durP1;ratioP1;P2;durP2;ratioP2
57191;SDS011;43052;52.588;13.396;2023-07-29T00:00:40;14.48;;;12.05;;
57191;SDS011;43052;52.588;13.396;2023-07-29T00:03:06;12.80;;;11.40;;
57191;SDS011;43052;52.588;13.396;2023-07-29T00:05:31;13.10;;;11.73;;
57191;SDS011;43052;52.588;13.396;2023-07-29T00:07:57;13.75;;;11.18;;
57191;SDS011;43052;52.588;13.396;2023-07-29T00:10:22;14.25;;;11.88;;
57191;SDS011;43052;52.588;13.396;2023-07-29T00:12:47;15.95;;;12.20;;
57191;SDS011;43052;52.588;13.396;2023-07-29T00:15:13;14.82;;;11.93;;
57191;SDS011;43052;52.588;13.396;2023-07-29T00:17:38;14.85;;;11.70;;
57191;SDS011;43052;52.588;13.396;2023-07-29T00:20:04;15.18;;;12.27;;
57191;SDS011;43052;52.588;13.396;2023-07-29T00:22:30;15.43;;;12.20;;
57191;SDS011;43052;52.588;13.396;2023-07-29T00:24:55;14.38;;;12.70;;
57191;SDS011;43052;52.588;13.396;2023-07-29T00:27:22;17.98;;;12.85;;
57191;SDS011;43052;52.588;13.396;2023-07-29T00:29:47;16.27;;;13.20;;
57191;SDS011;43052;52.588;13.396;2023-07-29T00:32:12;16.02;;;12.52;;
57191;SDS011;43052;52.588;13.396;2023-07-29T00:34:37;16.80;;;12.82;;
57191;SDS011;43052;52.588;13.396;2023-07-29T00:37:03;16.90;;;13.48;;
57191;SDS011;43052;52.588;13.396;2023-07-29T00:39:28;16.70;;;13.68;;
57191;SDS011;43052;52.588;13.396;2023-07-29T00:41:54;15.77;;;13.27;;
57191;SDS011;43052;52.588;13.396;2023-07-29T00:44:19;18.85;;;15.18;;
57191;SDS011;43052;52.588;13.396;2023-07-29T00:46:45;16.63;;;14.60;;
57191;SDS011;43052;52.588;13.396;2023-07-29T00:49:11;17.17;;;14.25;;
57191;SDS011;43052;52.588;13.396;2023-07-29T00:51:36;15.82;;;13.73;;
57191;SDS011;43052;52.588;13.396;2023-07-29T00:54:02;15.73;;;13.35;;
57191;SDS011;43052;52.588;13.396;2023-07-29T00:56:27;18.88;;;13.80;;
57191;SDS011;43052;52.588;13.396;2023-07-29T00:58:52;15.35;;;12.80;;
57191;SDS011;43052;52.588;13.396;2023-07-29T01:01:23;16.52;;;12.60;;
57191;SDS011;43052;52.588;13.396;2023-07-29T01:03:49;15.27;;;13.02;;
57191;SDS011;43052;52.588;13.396;2023-07-29T01:06:20;18.27;;;13.68;;
57191;SDS011;43052;52.588;13.396;2023-07-29T01:09:02;14.85;;;12.35;;
57191;SDS011;43052;52.588;13.396;2023-07-29T01:16:58;18.70;;;13.23;;
57191;SDS011;43052;52.588;13.396;2023-07-29T01:22:19;16.33;;;13.23;;
57191;SDS011;43052;52.588;13.396;2023-07-29T01:24:46;18.13;;;13.82;;
57191;SDS011;43052;52.588;13.396;2023-07-29T01:27:11;18.10;;;13.90;;
57191;SDS011;43052;52.588;13.396;2023-07-29T01:29:36;15.80;;;12.93;;
57191;SDS011;43052;52.588;13.396;2023-07-29T01:32:04;13.40;;;11.73;;
57191;SDS011;43052;52.588;13.396;2023-07-29T01:34:42;16.08;;;12.60;;
57191;SDS011;43052;52.588;13.396;2023-07-29T01:37:13;18.77;;;14.63;;
57191;SDS011;43052;52.588;13.396;2023-07-29T01:39:41;21.13;;;14.95;;
57191;SDS011;43052;52.588;13.396;2023-07-29T01:42:08;19.65;;;14.65;;
57191;SDS011;43052;52.588;13.396;2023-07-29T01:44:33;19.25;;;14.77;;
57191;SDS011;43052;52.588;13.396;2023-07-29T01:47:00;18.23;;;14.55;;
57191;SDS011;43052;52.588;13.396;2023-07-29T01:49:25;18.17;;;14.82;;
57191;SDS011;43052;52.588;13.396;2023-07-29T01:51:51;21.27;;;16.73;;
57191;SDS011;43052;52.588;13.396;2023-07-29T01:54:16;20.77;;;16.35;;
57191;SDS011;43052;52.588;13.396;2023-07-29T01:56:41;20.60;;;17.08;;
57191;SDS011;43052;52.588;13.396;2023-07-29T01:59:06;21.85;;;16.33;;
57191;SDS011;43052;52.588;13.396;2023-07-29T02:01:32;20.98;;;15.82;;
57191;SDS011;43052;52.588;13.396;2023-07-29T02:03:57;18.98;;;14.77;;
57191;SDS011;43052;52.588;13.396;2023-07-29T02:06:22;19.73;;;15.30;;
57191;SDS011;43052;52.588;13.396;2023-07-29T02:08:48;19.20;;;15.10;;
57191;SDS011;43052;52.588;13.396;2023-07-29T02:11:13;18.10;;;14.43;;
57191;SDS011;43052;52.588;13.396;2023-07-29T02:13:38;18.40;;;14.75;;
57191;SDS011;43052;52.588;13.396;2023-07-29T02:16:03;19.25;;;14.43;;
57191;SDS011;43052;52.588;13.396;2023-07-29T02:18:29;19.92;;;15.40;;
57191;SDS011;43052;52.588;13.396;2023-07-29T02:20:54;21.23;;;15.65;;
57191;SDS011;43052;52.588;13.396;2023-07-29T02:23:19;21.30;;;17.92;;
57191;SDS011;43052;52.588;13.396;2023-07-29T02:25:44;22.10;;;17.50;;
57191;SDS011;43052;52.588;13.396;2023-07-29T02:28:10;25.00;;;18.42;;
57191;SDS011;43052;52.588;13.396;2023-07-29T02:30:36;19.45;;;15.10;;
57191;SDS011;43052;52.588;13.396;2023-07-29T02:33:01;22.58;;;17.52;;
57191;SDS011;43052;52.588;13.396;2023-07-29T02:35:27;23.00;;;17.52;;
57191;SDS011;43052;52.588;13.396;2023-07-29T02:37:52;22.67;;;16.52;;
57191;SDS011;43052;52.588;13.396;2023-07-29T02:40:18;23.63;;;17.95;;
57191;SDS011;43052;52.588;13.396;2023-07-29T02:42:43;23.25;;;17.55;;
57191;SDS011;43052;52.588;13.396;2023-07-29T02:45:08;24.60;;;17.45;;
57191;SDS011;43052;52.588;13.396;2023-07-29T02:47:36;22.60;;;17.42;;
57191;SDS011;43052;52.588;13.396;2023-07-29T02:50:02;21.52;;;16.02;;
57191;SDS011;43052;52.588;13.396;2023-07-29T02:52:27;21.13;;;16.00;;
57191;SDS011;43052;52.588;13.396;2023-07-29T02:54:52;20.95;;;15.52;;
57191;SDS011;43052;52.588;13.396;2023-07-29T02:57:17;21.25;;;15.80;;
57191;SDS011;43052;52.588;13.396;2023-07-29T02:59:43;19.17;;;15.27;;
57191;SDS011;43052;52.588;13.396;2023-07-29T03:02:08;22.75;;;17.15;;
57191;SDS011;43052;52.588;13.396;2023-07-29T03:04:33;22.05;;;18.10;;
57191;SDS011;43052;52.588;13.396;2023-07-29T03:06:58;19.75;;;15.02;;
57191;SDS011;43052;52.588;13.396;2023-07-29T03:09:24;18.75;;;15.20;;
57191;SDS011;43052;52.588;13.396;2023-07-29T03:11:50;26.17;;;19.17;;
57191;SDS011;43052;52.588;13.396;2023-07-29T03:14:17;27.98;;;20.95;;
57191;SDS011;43052;52.588;13.396;2023-07-29T03:16:42;23.60;;;18.02;;
57191;SDS011;43052;52.588;13.396;2023-07-29T03:19:08;24.10;;;18.08;;
57191;SDS011;43052;52.588;13.396;2023-07-29T03:21:33;22.95;;;17.20;;
57191;SDS011;43052;52.588;13.396;2023-07-29T03:23:58;22.50;;;18.05;;
57191;SDS011;43052;52.588;13.396;2023-07-29T03:26:23;22.98;;;19.17;;
57191;SDS011;43052;52.588;13.396;2023-07-29T03:28:49;26.33;;;20.50;;
57191;SDS011;43052;52.588;13.396;2023-07-29T03:31:14;26.85;;;19.70;;
57191;SDS011;43052;52.588;13.396;2023-07-29T03:33:39;26.67;;;20.38;;
57191;SDS011;43052;52.588;13.396;2023-07-29T03:36:04;27.85;;;20.50;;
57191;SDS011;43052;52.588;13.396;2023-07-29T03:38:30;27.83;;;21.92;;
57191;SDS011;43052;52.588;13.396;2023-07-29T03:40:56;31.52;;;22.73;;
57191;SDS011;43052;52.588;13.396;2023-07-29T03:43:21;34.70;;;22.88;;
57191;SDS011;43052;52.588;13.396;2023-07-29T03:45:47;31.60;;;22.70;;
57191;SDS011;43052;52.588;13.396;2023-07-29T03:48:12;26.10;;;20.02;;
57191;SDS011;43052;52.588;13.396;2023-07-29T03:50:37;28.55;;;22.60;;
57191;SDS011;43052;52.588;13.396;2023-07-29T03:53:03;27.77;;;20.92;;
57191;SDS011;43052;52.588;13.396;2023-07-29T03:55:29;28.08;;;22.17;;
57191;SDS011;43052;52.588;13.396;2023-07-29T03:57:55;29.95;;;22.15;;
57191;SDS011;43052;52.588;13.396;2023-07-29T04:00:21;27.95;;;21.30;;
57191;SDS011;43052;52.588;13.396;2023-07-29T04:02:46;24.02;;;20.05;;
57191;SDS011;43052;52.588;13.396;2023-07-29T04:05:12;26.65;;;22.48;;
57191;SDS011;43052;52.588;13.396;2023-07-29T04:07:37;25.83;;;20.83;;
57191;SDS011;43052;52.588;13.396;2023-07-29T04:10:02;25.95;;;21.08;;
57191;SDS011;43052;52.588;13.396;2023-07-29T04:12:28;24.48;;;21.02;;
57191;SDS011;43052;52.588;13.396;2023-07-29T04:14:53;25.77;;;20.58;;
57191;SDS011;43052;52.588;13.396;2023-07-29T04:17:19;24.45;;;20.30;;
57191;SDS011;43052;52.588;13.396;2023-07-29T04:19:44;25.08;;;22.27;;
57191;SDS011;43052;52.588;13.396;2023-07-29T04:22:09;20.45;;;18.25;;
57191;SDS011;43052;52.588;13.396;2023-07-29T04:24:35;19.13;;;16.88;;
57191;SDS011;43052;52.588;13.396;2023-07-29T04:27:00;20.08;;;17.13;;
57191;SDS011;43052;52.588;13.396;2023-07-29T04:29:25;17.92;;;16.02;;
57191;SDS011;43052;52.588;13.396;2023-07-29T04:31:51;16.00;;;14.30;;
57191;SDS011;43052;52.588;13.396;2023-07-29T04:34:17;16.92;;;15.23;;
57191;SDS011;43052;52.588;13.396;2023-07-29T04:36:42;14.75;;;13.25;;
57191;SDS011;43052;52.588;13.396;2023-07-29T04:39:08;14.10;;;12.60;;
57191;SDS011;43052;52.588;13.396;2023-07-29T04:41:34;12.93;;;11.60;;
57191;SDS011;43052;52.588;13.396;2023-07-29T04:43:59;9.23;;;8.32;;
57191;SDS011;43052;52.588;13.396;2023-07-29T04:46:24;9.07;;;7.55;;
57191;SDS011;43052;52.588;13.396;2023-07-29T04:48:49;11.18;;;8.65;;
57191;SDS011;43052;52.588;13.396;2023-07-29T04:51:15;8.73;;;7.57;;
57191;SDS011;43052;52.588;13.396;2023-07-29T04:53:40;8.00;;;7.13;;
57191;SDS011;43052;52.588;13.396;2023-07-29T04:56:05;9.65;;;6.70;;
57191;SDS011;43052;52.588;13.396;2023-07-29T04:58:30;7.40;;;6.60;;
57191;SDS011;43052;52.588;13.396;2023-07-29T05:00:59;8.27;;;7.25;;
57191;SDS011;43052;52.588;13.396;2023-07-29T05:03:24;8.00;;;6.70;;
57191;SDS011;43052;52.588;13.396;2023-07-29T05:05:50;14.52;;;13.07;;
57191;SDS011;43052;52.588;13.396;2023-07-29T05:08:16;7.72;;;6.93;;
57191;SDS011;43052;52.588;13.396;2023-07-29T05:10:41;8.13;;;6.82;;
57191;SDS011;43052;52.588;13.396;2023-07-29T05:13:07;7.38;;;6.50;;
57191;SDS011;43052;52.588;13.396;2023-07-29T05:15:32;7.30;;;6.50;;
57191;SDS011;43052;52.588;13.396;2023-07-29T05:17:57;6.70;;;6.00;;
57191;SDS011;43052;52.588;13.396;2023-07-29T05:20:22;9.77;;;6.97;;
57191;SDS011;43052;52.588;13.396;2023-07-29T05:22:48;8.00;;;5.93;;
57191;SDS011;43052;52.588;13.396;2023-07-29T05:25:13;8.93;;;6.63;;
57191;SDS011;43052;52.588;13.396;2023-07-29T05:27:38;7.45;;;6.65;;
57191;SDS011;43052;52.588;13.396;2023-07-29T05:30:04;6.88;;;6.18;;
57191;SDS011;43052;52.588;13.396;2023-07-29T05:32:29;6.63;;;5.97;;
57191;SDS011;43052;52.588;13.396;2023-07-29T05:34:55;7.80;;;6.63;;
57191;SDS011;43052;52.588;13.396;2023-07-29T05:37:20;7.78;;;6.50;;
57191;SDS011;43052;52.588;13.396;2023-07-29T05:39:45;7.27;;;6.27;;
57191;SDS011;43052;52.588;13.396;2023-07-29T05:42:10;6.57;;;5.88;;
57191;SDS011;43052;52.588;13.396;2023-07-29T05:44:36;7.40;;;6.00;;
57191;SDS011;43052;52.588;13.396;2023-07-29T05:47:01;8.20;;;6.37;;
57191;SDS011;43052;52.588;13.396;2023-07-29T05:49:26;6.83;;;6.00;;
57191;SDS011;43052;52.588;13.396;2023-07-29T05:51:51;6.63;;;5.90;;
57191;SDS011;43052;52.588;13.396;2023-07-29T05:54:17;6.68;;;5.50;;
57191;SDS011;43052;52.588;13.396;2023-07-29T05:56:43;6.45;;;5.47;;
57191;SDS011;43052;52.588;13.396;2023-07-29T05:59:08;5.87;;;5.23;;
57191;SDS011;43052;52.588;13.396;2023-07-29T06:01:33;5.63;;;4.90;;
57191;SDS011;43052;52.588;13.396;2023-07-29T06:03:58;5.23;;;4.73;;
57191;SDS011;43052;52.588;13.396;2023-07-29T06:06:24;5.83;;;4.87;;
57191;SDS011;43052;52.588;13.396;2023-07-29T06:08:49;6.28;;;5.40;;
57191;SDS011;43052;52.588;13.396;2023-07-29T06:11:15;5.63;;;5.03;;
57191;SDS011;43052;52.588;13.396;2023-07-29T06:13:40;5.73;;;5.13;;
57191;SDS011;43052;52.588;13.396;2023-07-29T06:16:05;6.23;;;5.43;;
57191;SDS011;43052;52.588;13.396;2023-07-29T06:18:30;7.30;;;4.90;;
57191;SDS011;43052;52.588;13.396;2023-07-29T06:20:56;5.57;;;4.97;;
57191;SDS011;43052;52.588;13.396;2023-07-29T06:23:21;5.70;;;4.70;;
57191;SDS011;43052;52.588;13.396;2023-07-29T06:25:46;5.20;;;4.40;;
57191;SDS011;43052;52.588;13.396;2023-07-29T06:28:12;5.00;;;4.50;;
57191;SDS011;43052;52.588;13.396;2023-07-29T06:30:38;6.35;;;4.68;;
57191;SDS011;43052;52.588;13.396;2023-07-29T06:33:03;4.93;;;4.43;;
57191;SDS011;43052;52.588;13.396;2023-07-29T06:35:28;5.22;;;4.72;;
57191;SDS011;43052;52.588;13.396;2023-07-29T06:37:53;6.43;;;5.00;;
57191;SDS011;43052;52.588;13.396;2023-07-29T06:40:19;6.07;;;4.40;;
57191;SDS011;43052;52.588;13.396;2023-07-29T06:42:44;5.38;;;4.40;;
57191;SDS011;43052;52.588;13.396;2023-07-29T06:45:09;5.43;;;4.27;;
57191;SDS011;43052;52.588;13.396;2023-07-29T06:47:35;5.63;;;4.00;;
57191;SDS011;43052;52.588;13.396;2023-07-29T06:50:00;6.03;;;4.47;;
57191;SDS011;43052;52.588;13.396;2023-07-29T06:52:25;4.93;;;4.35;;
57191;SDS011;43052;52.588;13.396;2023-07-29T06:54:51;6.83;;;4.90;;
57191;SDS011;43052;52.588;13.396;2023-07-29T06:57:16;5.80;;;4.70;;
57191;SDS011;43052;52.588;13.396;2023-07-29T06:59:41;4.83;;;4.33;;
57191;SDS011;43052;52.588;13.396;2023-07-29T07:02:06;6.23;;;4.43;;
57191;SDS011;43052;52.588;13.396;2023-07-29T07:04:32;5.38;;;4.80;;
57191;SDS011;43052;52.588;13.396;2023-07-29T07:06:57;5.13;;;4.47;;
57191;SDS011;43052;52.588;13.396;2023-07-29T07:09:22;5.63;;;4.17;;
57191;SDS011;43052;52.588;13.396;2023-07-29T07:11:47;6.27;;;5.17;;
57191;SDS011;43052;52.588;13.396;2023-07-29T07:14:13;5.93;;;5.13;;
57191;SDS011;43052;52.588;13.396;2023-07-29T07:16:38;5.80;;;4.30;;
57191;SDS011;43052;52.588;13.396;2023-07-29T07:19:04;4.95;;;4.20;;
57191;SDS011;43052;52.588;13.396;2023-07-29T07:21:29;5.60;;;4.57;;
57191;SDS011;43052;52.588;13.396;2023-07-29T07:23:54;5.77;;;4.90;;
57191;SDS011;43052;52.588;13.396;2023-07-29T07:26:20;6.03;;;5.33;;
57191;SDS011;43052;52.588;13.396;2023-07-29T07:28:45;6.80;;;6.10;;
57191;SDS011;43052;52.588;13.396;2023-07-29T07:31:10;6.40;;;5.80;;
57191;SDS011;43052;52.588;13.396;2023-07-29T07:33:36;6.97;;;6.38;;
57191;SDS011;43052;52.588;13.396;2023-07-29T07:36:01;6.90;;;6.27;;
57191;SDS011;43052;52.588;13.396;2023-07-29T07:38:26;13.33;;;12.33;;
57191;SDS011;43052;52.588;13.396;2023-07-29T07:40:52;8.35;;;6.75;;
57191;SDS011;43052;52.588;13.396;2023-07-29T07:43:21;6.70;;;6.10;;
57191;SDS011;43052;52.588;13.396;2023-07-29T07:45:46;6.63;;;5.95;;
57191;SDS011;43052;52.588;13.396;2023-07-29T07:48:11;7.40;;;5.70;;
57191;SDS011;43052;52.588;13.396;2023-07-29T07:50:38;6.72;;;5.75;;
57191;SDS011;43052;52.588;13.396;2023-07-29T07:53:03;6.43;;;5.72;;
57191;SDS011;43052;52.588;13.396;2023-07-29T07:55:28;6.37;;;5.77;;
57191;SDS011;43052;52.588;13.396;2023-07-29T07:57:54;6.00;;;5.50;;
57191;SDS011;43052;52.588;13.396;2023-07-29T08:00:20;5.65;;;5.15;;
57191;SDS011;43052;52.588;13.396;2023-07-29T08:02:45;5.88;;;5.28;;
57191;SDS011;43052;52.588;13.396;2023-07-29T08:05:11;5.18;;;4.68;;
57191;SDS011;43052;52.588;13.396;2023-07-29T08:07:36;6.37;;;5.20;;
57191;SDS011;43052;52.588;13.396;2023-07-29T08:10:02;5.57;;;4.97;;
57191;SDS011;43052;52.588;13.396;2023-07-29T08:12:27;5.95;;;4.40;;
57191;SDS011;43052;52.588;13.396;2023-07-29T08:14:53;5.27;;;4.77;;
57191;SDS011;43052;52.588;13.396;2023-07-29T08:17:18;4.90;;;4.40;;
57191;SDS011;43052;52.588;13.396;2023-07-29T08:19:43;6.37;;;4.27;;
57191;SDS011;43052;52.588;13.396;2023-07-29T08:22:08;4.40;;;4.00;;
57191;SDS011;43052;52.588;13.396;2023-07-29T08:24:34;4.57;;;4.17;;
57191;SDS011;43052;52.588;13.396;2023-07-29T08:26:59;4.57;;;4.18;;
57191;SDS011;43052;52.588;13.396;2023-07-29T08:29:24;4.50;;;4.10;;
57191;SDS011;43052;52.588;13.396;2023-07-29T08:31:50;5.10;;;4.68;;
57191;SDS011;43052;52.588;13.396;2023-07-29T08:34:16;4.60;;;4.20;;
57191;SDS011;43052;52.588;13.396;2023-07-29T08:36:42;4.28;;;3.92;;
57191;SDS011;43052;52.588;13.396;2023-07-29T08:39:07;4.70;;;4.30;;
57191;SDS011;43052;52.588;13.396;2023-07-29T08:41:35;5.20;;;4.70;;
57191;SDS011;43052;52.588;13.396;2023-07-29T08:44:09;4.95;;;4.45;;
57191;SDS011;43052;52.588;13.396;2023-07-29T08:46:41;4.72;;;4.32;;
57191;SDS011;43052;52.588;13.396;2023-07-29T08:49:07;4.40;;;4.00;;
57191;SDS011;43052;52.588;13.396;2023-07-29T08:51:33;5.20;;;3.95;;
57191;SDS011;43052;52.588;13.396;2023-07-29T08:53:59;4.22;;;3.83;;
57191;SDS011;43052;52.588;13.396;2023-07-29T08:56:25;4.18;;;3.78;;
57191;SDS011;43052;52.588;13.396;2023-07-29T08:58:50;4.20;;;3.80;;
57191;SDS011;43052;52.588;13.396;2023-07-29T09:01:17;5.15;;;3.72;;
57191;SDS011;43052;52.588;13.396;2023-07-29T09:03:42;4.10;;;3.70;;
57191;SDS011;43052;52.588;13.396;2023-07-29T09:06:08;4.13;;;3.60;;
57191;SDS011;43052;52.588;13.396;2023-07-29T09:08:33;4.13;;;3.72;;
57191;SDS011;43052;52.588;13.396;2023-07-29T09:10:59;6.45;;;3.92;;
57191;SDS011;43052;52.588;13.396;2023-07-29T09:13:25;4.22;;;3.83;;
57191;SDS011;43052;52.588;13.396;2023-07-29T09:15:54;4.95;;;3.80;;
57191;SDS011;43052;52.588;13.396;2023-07-29T09:18:21;4.32;;;3.55;;
57191;SDS011;43052;52.588;13.396;2023-07-29T09:20:47;4.07;;;3.53;;
57191;SDS011;43052;52.588;13.396;2023-07-29T09:23:13;3.70;;;3.33;;
57191;SDS011;43052;52.588;13.396;2023-07-29T09:25:38;3.97;;;3.50;;
57191;SDS011;43052;52.588;13.396;2023-07-29T09:28:10;3.92;;;3.45;;
57191;SDS011;43052;52.588;13.396;2023-07-29T09:30:40;4.80;;;3.78;;
57191;SDS011;43052;52.588;13.396;2023-07-29T09:33:08;4.68;;;3.58;;
57191;SDS011;43052;52.588;13.396;2023-07-29T09:35:35;3.90;;;3.30;;
57191;SDS011;43052;52.588;13.396;2023-07-29T09:38:02;3.92;;;3.53;;
57191;SDS011;43052;52.588;13.396;2023-07-29T09:40:39;3.60;;;3.08;;
57191;SDS011;43052;52.588;13.396;2023-07-29T09:43:06;3.30;;;3.00;;
57191;SDS011;43052;52.588;13.396;2023-07-29T09:45:35;4.10;;;3.10;;
57191;SDS011;43052;52.588;13.396;2023-07-29T09:48:02;4.10;;;3.50;;
57191;SDS011;43052;52.588;13.396;2023-07-29T09:50:29;3.22;;;2.92;;
57191;SDS011;43052;52.588;13.396;2023-07-29T09:52:55;4.27;;;3.53;;
57191;SDS011;43052;52.588;13.396;2023-07-29T09:55:23;3.60;;;3.00;;
57191;SDS011;43052;52.588;13.396;2023-07-29T09:57:53;3.63;;;3.33;;
57191;SDS011;43052;52.588;13.396;2023-07-29T10:00:22;3.80;;;3.40;;
57191;SDS011;43052;52.588;13.396;2023-07-29T10:02:48;4.72;;;3.40;;
57191;SDS011;43052;52.588;13.396;2023-07-29T10:05:14;4.68;;;3.25;;
57191;SDS011;43052;52.588;13.396;2023-07-29T10:07:40;3.85;;;3.00;;
57191;SDS011;43052;52.588;13.396;2023-07-29T10:10:06;3.60;;;2.80;;
57191;SDS011;43052;52.588;13.396;2023-07-29T10:12:32;3.75;;;2.90;;
57191;SDS011;43052;52.588;13.396;2023-07-29T10:15:03;4.25;;;3.13;;
57191;SDS011;43052;52.588;13.396;2023-07-29T10:17:30;3.63;;;2.95;;
57191;SDS011;43052;52.588;13.396;2023-07-29T10:20:02;4.13;;;2.90;;
57191;SDS011;43052;52.588;13.396;2023-07-29T10:22:28;2.92;;;2.70;;
57191;SDS011;43052;52.588;13.396;2023-07-29T10:24:59;4.05;;;3.22;;
57191;SDS011;43052;52.588;13.396;2023-07-29T10:27:29;2.85;;;2.63;;
57191;SDS011;43052;52.588;13.396;2023-07-29T10:30:00;3.45;;;2.85;;
57191;SDS011;43052;52.588;13.396;2023-07-29T10:32:25;3.35;;;3.05;;
57191;SDS011;43052;52.588;13.396;2023-07-29T10:34:54;3.17;;;2.67;;
57191;SDS011;43052;52.588;13.396;2023-07-29T10:37:19;3.33;;;2.80;;
57191;SDS011;43052;52.588;13.396;2023-07-29T10:39:53;3.75;;;3.05;;
57191;SDS011;43052;52.588;13.396;2023-07-29T10:42:19;5.35;;;2.80;;
57191;SDS011;43052;52.588;13.396;2023-07-29T10:44:45;3.08;;;2.78;;
57191;SDS011;43052;52.588;13.396;2023-07-29T10:47:15;3.08;;;2.83;;
57191;SDS011;43052;52.588;13.396;2023-07-29T10:49:42;2.97;;;2.67;;
57191;SDS011;43052;52.588;13.396;2023-07-29T10:52:13;2.90;;;2.60;;
57191;SDS011;43052;52.588;13.396;2023-07-29T10:54:43;3.20;;;2.63;;
57191;SDS011;43052;52.588;13.396;2023-07-29T10:57:17;3.75;;;2.70;;
57191;SDS011;43052;52.588;13.396;2023-07-29T10:59:57;3.53;;;2.53;;
57191;SDS011;43052;52.588;13.396;2023-07-29T11:02:28;3.15;;;2.47;;
57191;SDS011;43052;52.588;13.396;2023-07-29T11:04:54;3.00;;;2.70;;
57191;SDS011;43052;52.588;13.396;2023-07-29T11:07:20;4.47;;;3.20;;
57191;SDS011;43052;52.588;13.396;2023-07-29T11:09:54;4.45;;;2.97;;
57191;SDS011;43052;52.588;13.396;2023-07-29T11:12:36;3.75;;;2.90;;
57191;SDS011;43052;52.588;13.396;2023-07-29T11:15:12;2.75;;;2.38;;
57191;SDS011;43052;52.588;13.396;2023-07-29T11:17:39;3.25;;;2.78;;
57191;SDS011;43052;52.588;13.396;2023-07-29T11:20:06;3.20;;;2.30;;
57191;SDS011;43052;52.588;13.396;2023-07-29T11:22:33;13.05;;;4.18;;
57191;SDS011;43052;52.588;13.396;2023-07-29T11:24:58;7.75;;;3.10;;
57191;SDS011;43052;52.588;13.396;2023-07-29T11:27:23;6.05;;;2.70;;
57191;SDS011;43052;52.588;13.396;2023-07-29T11:29:49;5.43;;;2.35;;
57191;SDS011;43052;52.588;13.396;2023-07-29T11:32:15;4.03;;;2.17;;
57191;SDS011;43052;52.588;13.396;2023-07-29T11:34:41;4.30;;;2.20;;
57191;SDS011;43052;52.588;13.396;2023-07-29T11:37:08;6.50;;;2.50;;
57191;SDS011;43052;52.588;13.396;2023-07-29T11:39:41;4.32;;;2.17;;
57191;SDS011;43052;52.588;13.396;2023-07-29T11:42:10;4.30;;;2.20;;
57191;SDS011;43052;52.588;13.396;2023-07-29T11:44:36;4.95;;;2.30;;
57191;SDS011;43052;52.588;13.396;2023-07-29T11:47:01;4.55;;;2.20;;
57191;SDS011;43052;52.588;13.396;2023-07-29T11:49:27;4.35;;;2.38;;
57191;SDS011;43052;52.588;13.396;2023-07-29T11:51:52;3.13;;;2.30;;
57191;SDS011;43052;52.588;13.396;2023-07-29T11:54:18;2.97;;;2.10;;
57191;SDS011;43052;52.588;13.396;2023-07-29T11:56:46;3.28;;;2.03;;
57191;SDS011;43052;52.588;13.396;2023-07-29T11:59:12;2.97;;;1.90;;
57191;SDS011;43052;52.588;13.396;2023-07-29T12:01:38;3.17;;;2.10;;
57191;SDS011;43052;52.588;13.396;2023-07-29T12:04:03;6.70;;;2.88;;
57191;SDS011;43052;52.588;13.396;2023-07-29T12:06:29;3.75;;;2.30;;
57191;SDS011;43052;52.588;13.396;2023-07-29T12:08:56;3.65;;;2.30;;
57191;SDS011;43052;52.588;13.396;2023-07-29T12:11:21;4.30;;;2.42;;
57191;SDS011;43052;52.588;13.396;2023-07-29T12:13:47;4.60;;;2.45;;
57191;SDS011;43052;52.588;13.396;2023-07-29T12:16:16;3.42;;;2.30;;
57191;SDS011;43052;52.588;13.396;2023-07-29T12:18:42;4.30;;;2.65;;
57191;SDS011;43052;52.588;13.396;2023-07-29T12:21:08;3.00;;;2.20;;
57191;SDS011;43052;52.588;13.396;2023-07-29T12:23:33;3.38;;;2.03;;
57191;SDS011;43052;52.588;13.396;2023-07-29T12:25:58;3.83;;;2.58;;
57191;SDS011;43052;52.588;13.396;2023-07-29T12:28:24;3.53;;;2.40;;
57191;SDS011;43052;52.588;13.396;2023-07-29T12:30:56;5.45;;;2.88;;
57191;SDS011;43052;52.588;13.396;2023-07-29T12:33:35;5.22;;;2.30;;
57191;SDS011;43052;52.588;13.396;2023-07-29T12:36:02;3.22;;;2.28;;
57191;SDS011;43052;52.588;13.396;2023-07-29T12:38:28;3.13;;;2.20;;
57191;SDS011;43052;52.588;13.396;2023-07-29T12:40:54;3.75;;;2.47;;
57191;SDS011;43052;52.588;13.396;2023-07-29T12:43:20;4.57;;;2.30;;
57191;SDS011;43052;52.588;13.396;2023-07-29T12:45:45;3.75;;;2.50;;
57191;SDS011;43052;52.588;13.396;2023-07-29T12:48:10;3.88;;;2.30;;
57191;SDS011;43052;52.588;13.396;2023-07-29T12:50:37;4.50;;;1.98;;
57191;SDS011;43052;52.588;13.396;2023-07-29T12:53:03;3.72;;;2.70;;
57191;SDS011;43052;52.588;13.396;2023-07-29T12:55:30;5.20;;;2.33;;
57191;SDS011;43052;52.588;13.396;2023-07-29T12:57:55;3.15;;;2.30;;
57191;SDS011;43052;52.588;13.396;2023-07-29T13:00:20;3.05;;;2.13;;
57191;SDS011;43052;52.588;13.396;2023-07-29T13:02:45;4.45;;;2.70;;
57191;SDS011;43052;52.588;13.396;2023-07-29T13:05:11;3.13;;;2.70;;
57191;SDS011;43052;52.588;13.396;2023-07-29T13:07:37;3.38;;;2.50;;
57191;SDS011;43052;52.588;13.396;2023-07-29T13:10:04;2.88;;;2.40;;
57191;SDS011;43052;52.588;13.396;2023-07-29T13:12:29;3.45;;;2.67;;
57191;SDS011;43052;52.588;13.396;2023-07-29T13:14:54;3.60;;;2.40;;
57191;SDS011;43052;52.588;13.396;2023-07-29T13:17:20;3.53;;;2.75;;
57191;SDS011;43052;52.588;13.396;2023-07-29T13:19:46;4.75;;;3.70;;
57191;SDS011;43052;52.588;13.396;2023-07-29T13:22:12;4.40;;;3.08;;
57191;SDS011;43052;52.588;13.396;2023-07-29T13:24:37;4.17;;;2.63;;
57191;SDS011;43052;52.588;13.396;2023-07-29T13:27:02;3.87;;;2.83;;
57191;SDS011;43052;52.588;13.396;2023-07-29T13:29:28;3.85;;;2.85;;
57191;SDS011;43052;52.588;13.396;2023-07-29T13:31:53;4.17;;;2.67;;
57191;SDS011;43052;52.588;13.396;2023-07-29T13:34:18;2.85;;;2.55;;
57191;SDS011;43052;52.588;13.396;2023-07-29T13:36:43;3.57;;;2.80;;
57191;SDS011;43052;52.588;13.396;2023-07-29T13:39:09;2.70;;;2.50;;
57191;SDS011;43052;52.588;13.396;2023-07-29T13:41:34;5.83;;;2.97;;
57191;SDS011;43052;52.588;13.396;2023-07-29T13:43:59;3.00;;;2.50;;
57191;SDS011;43052;52.588;13.396;2023-07-29T13:46:24;2.43;;;2.17;;
57191;SDS011;43052;52.588;13.396;2023-07-29T13:48:50;2.30;;;2.10;;
57191;SDS011;43052;52.588;13.396;2023-07-29T13:51:15;2.20;;;2.00;;
57191;SDS011;43052;52.588;13.396;2023-07-29T13:53:40;2.10;;;1.90;;
57191;SDS011;43052;52.588;13.396;2023-07-29T13:56:05;2.55;;;1.90;;
57191;SDS011;43052;52.588;13.396;2023-07-29T13:58:31;2.60;;;1.70;;
57191;SDS011;43052;52.588;13.396;2023-07-29T14:00:56;1.80;;;1.65;;
57191;SDS011;43052;52.588;13.396;2023-07-29T14:03:21;2.47;;;1.90;;
57191;SDS011;43052;52.588;13.396;2023-07-29T14:05:46;3.00;;;1.70;;
57191;SDS011;43052;52.588;13.396;2023-07-29T14:08:12;1.85;;;1.60;;
57191;SDS011;43052;52.588;13.396;2023-07-29T14:10:37;1.90;;;1.67;;
57191;SDS011;43052;52.588;13.396;2023-07-29T14:13:02;1.73;;;1.63;;
57191;SDS011;43052;52.588;13.396;2023-07-29T14:15:27;1.93;;;1.53;;
57191;SDS011;43052;52.588;13.396;2023-07-29T14:17:53;3.05;;;1.55;;
57191;SDS011;43052;52.588;13.396;2023-07-29T14:20:19;1.85;;;1.30;;
57191;SDS011;43052;52.588;13.396;2023-07-29T14:22:44;1.58;;;1.33;;
57191;SDS011;43052;52.588;13.396;2023-07-29T14:25:09;1.67;;;1.40;;
57191;SDS011;43052;52.588;13.396;2023-07-29T14:27:35;1.58;;;1.48;;